KHND Airport (Henderson Executive) Information

FAA: HND - ICAO: KHND

KHND Airport Location

State Nevada
County Clark
City Las Vegas
KHND Airport is 11 miles south of Las Vegas, NV.
Latitude 35-58-22.3000N
Longitude 115-08-04.0000W
Elevation 2,491ft

KHND Airport METARs

METAR KHND 281456Z 18003KT 10SM CLR 12/03 A3030 RMK AO2 SLP269 T01220033 53012
Altimeter 30.30"
Temperature 12.2°C (54.0°F)
Wind 180° at 3KT
Clouds Skies are clear.
Visibility 10.0mi
Time observed: 2021-10-28T14:56:00Z

KHND Airport Details

Status Operational
Activation October 1970
Ownership Public
Usage Public
Chart LAS VEGAS
ATC on-site Yes
Beacon schedule sunset-sunrise
Beacon color clear green

KHND Airport Contacts

Owner CLARK COUNTY
Owner address P.O. BOX 11005, LAS VEGAS, NV 89111
Owner phone 702-261-4802
Manager JAMES LASSITER-MGR OF SECURITY
Manager address 3001 ST ROSE PARKWAY, HENDERSON, NV 89052
Manager phone 702-616-5055

KHND Airport (Henderson Executive) Radio Frequencies

KHND (Airport) Radio Frequencies

UNICOM 122.95
Common traffic advisory frequency (CTAF) 125.1